createdAt,value
2023-03-15T00:00:58.536Z,83.77
2023-03-15T00:03:31.314Z,83.95
2023-03-15T00:06:05.054Z,83.56
2023-03-15T00:08:37.396Z,83.90
2023-03-15T00:11:09.518Z,83.41
2023-03-15T00:17:05.259Z,84.29
2023-03-15T00:19:37.501Z,84.23
2023-03-15T00:22:09.760Z,83.71
2023-03-15T00:24:41.934Z,83.94
2023-03-15T00:27:15.536Z,84.35
2023-03-15T00:29:47.784Z,83.77
2023-03-15T00:32:19.997Z,83.86
2023-03-15T00:34:54.876Z,84.65
2023-03-15T00:37:27.014Z,84.18
2023-03-15T00:39:59.154Z,84.11
2023-03-15T00:42:31.206Z,83.75
2023-03-15T00:45:03.539Z,84.18
2023-03-15T00:47:35.581Z,84.27
2023-03-15T00:50:08.084Z,83.86
2023-03-15T00:52:42.114Z,83.38
2023-03-15T00:55:19.597Z,83.57
2023-03-15T00:57:51.575Z,84.10
2023-03-15T01:00:25.094Z,83.77
2023-03-15T01:02:57.600Z,83.35
2023-03-15T01:05:29.862Z,84.02
2023-03-15T01:08:03.197Z,84.17
2023-03-15T01:10:36.149Z,83.61
2023-03-15T01:13:08.285Z,83.99
2023-03-15T01:15:40.922Z,83.58
2023-03-15T01:18:13.012Z,83.63
2023-03-15T01:20:45.607Z,83.42
2023-03-15T01:23:17.885Z,83.32
2023-03-15T01:25:49.969Z,82.98
2023-03-15T01:28:22.182Z,83.22
2023-03-15T01:30:54.667Z,82.09
2023-03-15T01:33:26.930Z,81.66
2023-03-15T01:36:05.653Z,82.10
2023-03-15T01:38:37.911Z,81.58
2023-03-15T01:41:14.265Z,81.08
2023-03-15T01:43:49.398Z,80.37
2023-03-15T01:46:35.123Z,80.51
2023-03-15T01:49:32.607Z,81.05
2023-03-15T01:52:15.844Z,81.76
2023-03-15T01:55:02.639Z,80.67
2023-03-15T01:57:50.131Z,81.45
2023-03-15T02:00:22.807Z,81.17
2023-03-15T02:03:09.730Z,81.57
2023-03-15T02:05:48.142Z,82.04
2023-03-15T02:08:21.572Z,82.96
2023-03-15T02:10:58.734Z,84.02
2023-03-15T02:13:33.298Z,85.17
2023-03-15T02:16:07.087Z,84.93
2023-03-15T02:18:39.299Z,86.43
2023-03-15T02:21:55.880Z,86.55
2023-03-15T02:24:48.270Z,87.74
2023-03-15T02:27:28.306Z,87.39
2023-03-15T02:30:03.585Z,89.73
2023-03-15T02:32:35.640Z,90.60
2023-03-15T02:35:10.586Z,92.28
2023-03-15T02:37:46.029Z,92.32
2023-03-15T02:40:22.150Z,93.29
2023-03-15T02:43:09.251Z,93.12
2023-03-15T02:45:42.438Z,94.19
2023-03-15T02:48:14.695Z,94.47
2023-03-15T02:50:46.839Z,95.81
2023-03-15T02:53:19.011Z,95.39
2023-03-15T02:55:51.902Z,95.27
2023-03-15T02:58:25.059Z,94.92
2023-03-15T03:00:57.147Z,95.22
2023-03-15T03:03:29.156Z,95.32
2023-03-15T03:06:01.166Z,94.93
2023-03-15T03:08:33.198Z,94.70
2023-03-15T03:11:06.767Z,94.87
2023-03-15T03:13:38.793Z,94.84
2023-03-15T03:16:11.675Z,94.64
2023-03-15T03:18:46.849Z,95.16
2023-03-15T03:21:19.065Z,96.85
2023-03-15T03:23:51.026Z,96.81
2023-03-15T03:26:28.151Z,97.06
2023-03-15T03:29:00.388Z,96.79
2023-03-15T03:31:33.926Z,96.68
2023-03-15T03:34:05.894Z,96.35
2023-03-15T03:36:37.985Z,95.45
2023-03-15T03:39:10.761Z,95.71
2023-03-15T03:41:42.881Z,95.04
2023-03-15T03:44:15.030Z,94.88
2023-03-15T03:46:47.240Z,94.39
2023-03-15T03:49:19.416Z,94.12
2023-03-15T03:51:51.545Z,93.86
2023-03-15T03:54:24.826Z,93.92
2023-03-15T03:56:56.965Z,93.60
2023-03-15T03:59:29.366Z,93.70
2023-03-15T04:02:01.456Z,94.10
2023-03-15T04:04:33.526Z,94.26
2023-03-15T04:07:05.663Z,94.61
2023-03-15T04:09:37.847Z,95.16
2023-03-15T04:12:10.237Z,95.25
2023-03-15T04:14:42.579Z,95.52
2023-03-15T04:17:14.606Z,95.85
2023-03-15T04:19:49.577Z,96.44
2023-03-15T04:22:21.626Z,96.38
2023-03-15T04:24:53.724Z,97.28
2023-03-15T04:27:25.811Z,97.06
2023-03-15T04:30:01.385Z,96.41
2023-03-15T04:32:33.445Z,96.87
2023-03-15T04:35:09.135Z,97.09
2023-03-15T04:37:42.597Z,97.16
2023-03-15T04:40:15.425Z,97.27
2023-03-15T04:42:47.633Z,97.31
2023-03-15T04:45:19.623Z,97.43
2023-03-15T04:47:52.676Z,97.83
2023-03-15T04:50:25.599Z,98.00
2023-03-15T04:53:00.909Z,97.77
2023-03-15T04:55:32.915Z,97.89
2023-03-15T04:58:05.374Z,97.80
2023-03-15T05:00:37.437Z,97.99
2023-03-15T05:03:09.560Z,98.55
2023-03-15T05:05:41.695Z,98.69
2023-03-15T05:08:13.773Z,99.27
2023-03-15T05:10:45.832Z,99.41
2023-03-15T05:13:19.139Z,98.94
2023-03-15T05:15:51.135Z,99.08
2023-03-15T05:18:23.665Z,99.02
2023-03-15T05:20:55.984Z,99.38
2023-03-15T05:23:28.084Z,99.92
2023-03-15T05:26:04.020Z,100.00
2023-03-15T05:28:36.160Z,99.98
2023-03-15T05:31:08.144Z,99.74
2023-03-15T05:33:47.031Z,100.00
2023-03-15T05:36:19.317Z,100.00
2023-03-15T05:38:51.929Z,100.00
2023-03-15T05:41:24.120Z,100.00
2023-03-15T05:43:56.225Z,99.89
2023-03-15T05:46:28.336Z,100.00
2023-03-15T05:49:00.445Z,100.00
2023-03-15T05:51:32.444Z,99.89
2023-03-15T05:54:05.459Z,100.00
2023-03-15T05:56:37.510Z,100.00
2023-03-15T05:59:10.334Z,100.00
2023-03-15T06:01:42.404Z,99.91
2023-03-15T06:04:15.315Z,99.88
2023-03-15T06:06:47.391Z,100.00
2023-03-15T06:09:22.836Z,100.00
2023-03-15T06:11:55.677Z,100.00
2023-03-15T06:14:28.440Z,100.00
2023-03-15T06:17:00.612Z,100.00
2023-03-15T06:19:32.758Z,100.00
2023-03-15T06:22:05.262Z,100.00
2023-03-15T06:24:37.258Z,99.82
2023-03-15T06:27:09.292Z,100.00
2023-03-15T06:29:41.384Z,100.00
2023-03-15T06:32:13.873Z,100.00
2023-03-15T06:35:14.773Z,100.00
2023-03-15T06:38:03.599Z,100.00
2023-03-15T06:40:35.664Z,100.00
2023-03-15T06:43:07.745Z,99.22
2023-03-15T06:45:41.185Z,98.98
2023-03-15T06:48:14.703Z,98.54
2023-03-15T06:50:47.887Z,98.69
2023-03-15T06:53:20.783Z,99.09
2023-03-15T06:55:52.782Z,99.00
2023-03-15T06:58:25.731Z,97.19
2023-03-15T07:00:57.734Z,95.54
2023-03-15T07:03:29.911Z,94.92
2023-03-15T07:06:01.908Z,94.53
2023-03-15T07:08:34.738Z,92.50
2023-03-15T10:36:10.995Z,64.39
2023-03-15T10:38:44.851Z,74.05
2023-03-15T10:41:40.397Z,78.49
2023-03-15T12:28:21.872Z,67.91
2023-03-15T12:43:04.463Z,54.88
2023-03-15T12:45:45.710Z,56.79
2023-03-15T12:48:26.020Z,57.39
2023-03-15T12:58:43.550Z,59.16
2023-03-15T13:01:18.851Z,57.40
2023-03-15T13:03:56.649Z,56.60
2023-03-15T13:07:14.639Z,55.10
2023-03-15T13:09:49.466Z,53.14
2023-03-15T13:13:01.317Z,53.90
2023-03-15T13:15:58.740Z,53.92
2023-03-15T13:18:36.861Z,54.88
2023-03-15T13:21:36.958Z,56.17
2023-03-15T13:24:49.843Z,56.55
2023-03-15T13:27:46.564Z,57.71
2023-03-15T13:30:46.173Z,60.73
2023-03-15T13:33:24.736Z,57.13
2023-03-15T13:36:01.376Z,58.54
2023-03-15T13:38:38.134Z,60.70
2023-03-15T13:41:31.360Z,58.68
2023-03-15T13:44:17.026Z,61.82
2023-03-15T13:46:53.215Z,59.22
2023-03-15T13:49:32.072Z,61.32
2023-03-15T13:52:12.411Z,61.14
2023-03-15T13:54:47.388Z,60.26
2023-03-15T13:57:22.494Z,57.72
2023-03-15T14:00:12.291Z,56.98
2023-03-15T14:02:48.726Z,55.90
2023-03-15T14:05:34.046Z,55.62
2023-03-15T14:08:21.869Z,55.39
2023-03-15T14:11:22.605Z,56.63
2023-03-15T14:13:58.651Z,55.99
2023-03-15T14:17:05.274Z,55.61
2023-03-15T14:19:38.610Z,56.99
2023-03-15T14:22:18.065Z,56.93
2023-03-15T14:24:53.236Z,57.09
2023-03-15T14:27:31.032Z,55.52
2023-03-15T14:30:22.705Z,56.19
2023-03-15T14:33:00.320Z,55.41
2023-03-15T14:35:42.664Z,56.79
2023-03-15T14:38:34.258Z,58.13
2023-03-15T14:41:33.327Z,56.55
2023-03-15T14:44:06.448Z,58.72
2023-03-15T14:46:38.697Z,58.73
2023-03-15T14:49:22.702Z,58.76
2023-03-15T14:52:05.549Z,56.45
2023-03-15T14:54:49.136Z,57.70
2023-03-15T14:57:23.971Z,56.85
2023-03-15T14:59:56.183Z,55.59
2023-03-15T15:02:28.628Z,55.85
2023-03-15T15:05:04.287Z,56.54
2023-03-15T15:07:36.472Z,56.41
2023-03-15T15:10:09.699Z,55.17
2023-03-15T15:12:41.944Z,53.77
2023-03-15T15:15:17.645Z,52.57
2023-03-15T15:17:54.323Z,53.11
2023-03-15T15:20:29.663Z,53.03
2023-03-15T15:23:05.097Z,50.74
2023-03-15T15:25:37.375Z,51.69
2023-03-15T15:28:10.301Z,51.22
2023-03-15T15:30:46.265Z,53.03
2023-03-15T15:33:18.417Z,51.54
2023-03-15T15:35:54.811Z,51.26
2023-03-15T15:38:40.374Z,51.43
2023-03-15T15:41:24.373Z,50.83
2023-03-15T15:43:56.659Z,49.75
2023-03-15T15:46:29.419Z,47.37
2023-03-15T15:49:01.603Z,48.47
2023-03-15T15:51:47.070Z,48.47
2023-03-15T15:54:25.537Z,49.55
2023-03-15T15:56:59.894Z,50.35
2023-03-15T15:59:38.102Z,49.65
2023-03-15T16:02:18.293Z,50.21
2023-03-15T16:04:53.908Z,50.38
2023-03-15T16:07:26.263Z,51.48
2023-03-15T16:10:00.352Z,50.00
2023-03-15T16:12:32.978Z,51.75
2023-03-15T16:15:05.915Z,50.05
2023-03-15T16:17:38.020Z,51.75
2023-03-15T16:20:11.686Z,50.69
2023-03-15T16:22:49.281Z,49.78
2023-03-15T16:25:28.678Z,49.89
2023-03-15T16:28:03.698Z,50.18
2023-03-15T16:30:35.834Z,51.22
2023-03-15T16:33:20.610Z,50.54
2023-03-15T16:35:53.348Z,50.51
2023-03-15T16:38:32.467Z,51.73
2023-03-15T16:41:04.898Z,53.49
2023-03-15T16:43:36.974Z,54.45
2023-03-15T16:46:16.731Z,55.32
2023-03-15T16:48:48.949Z,55.88
2023-03-15T16:51:22.213Z,55.95
2023-03-15T16:54:05.029Z,55.73
2023-03-15T16:56:41.055Z,56.33
2023-03-15T16:59:17.697Z,56.52
2023-03-15T17:01:50.702Z,56.58
2023-03-15T17:04:23.045Z,56.88
2023-03-15T17:06:55.304Z,57.44
2023-03-15T17:09:28.741Z,57.51
2023-03-15T17:12:01.114Z,57.46
2023-03-15T17:14:35.582Z,58.35
2023-03-15T17:17:09.448Z,59.20
2023-03-15T17:19:41.586Z,58.97
2023-03-15T17:22:17.046Z,60.20
2023-03-15T17:24:49.535Z,59.46
2023-03-15T17:27:30.856Z,59.53
2023-03-15T17:30:09.003Z,59.64
2023-03-15T17:32:42.405Z,59.56
2023-03-15T17:35:16.713Z,60.54
2023-03-15T17:37:52.618Z,60.34
2023-03-15T17:40:28.766Z,61.18
2023-03-15T17:43:03.708Z,60.49
2023-03-15T17:45:36.150Z,60.96
2023-03-15T17:48:08.477Z,61.27
2023-03-15T17:51:01.846Z,61.49
2023-03-15T17:53:34.238Z,61.00
2023-03-15T17:56:09.781Z,61.20
2023-03-15T17:58:43.928Z,61.86
2023-03-15T18:01:28.506Z,61.67
2023-03-15T18:04:05.056Z,61.56
2023-03-15T18:06:37.252Z,61.95
2023-03-15T18:09:14.415Z,61.31
2023-03-15T18:11:48.740Z,61.13
2023-03-15T18:14:23.763Z,61.95
2023-03-15T18:16:56.219Z,61.35
2023-03-15T18:19:28.726Z,62.37
2023-03-15T18:22:00.914Z,63.21
2023-03-15T18:24:34.516Z,62.79
2023-03-15T18:27:06.745Z,63.24
2023-03-15T18:29:39.008Z,63.93
2023-03-15T18:32:11.431Z,64.15
2023-03-15T18:34:43.858Z,65.39
2023-03-15T18:37:16.018Z,65.17
2023-03-15T18:39:51.430Z,66.80
2023-03-15T18:42:23.787Z,67.45
2023-03-15T18:44:55.918Z,67.74
2023-03-15T18:47:28.014Z,67.02
2023-03-15T18:50:09.662Z,67.97
2023-03-15T18:52:43.260Z,67.37
2023-03-15T18:55:18.876Z,66.93
2023-03-15T18:57:52.852Z,68.18
2023-03-15T19:00:32.703Z,68.20
2023-03-15T19:03:08.213Z,68.15
2023-03-15T19:05:40.838Z,67.95
2023-03-15T19:08:13.096Z,67.28
2023-03-15T19:10:47.124Z,67.79
2023-03-15T19:13:19.278Z,67.57
2023-03-15T19:15:51.531Z,68.23
2023-03-15T19:18:26.824Z,68.28
2023-03-15T19:20:59.461Z,68.46
2023-03-15T19:23:32.178Z,67.93
2023-03-15T19:26:04.907Z,68.43
2023-03-15T19:28:41.451Z,68.19
2023-03-15T19:31:13.921Z,68.28
2023-03-15T19:33:46.045Z,68.63
2023-03-15T19:36:18.495Z,68.44
2023-03-15T19:38:53.727Z,69.02
2023-03-15T19:41:26.533Z,68.40
2023-03-15T19:43:58.796Z,68.83
2023-03-15T19:46:31.547Z,68.79
2023-03-15T19:49:04.505Z,69.60
2023-03-15T19:51:37.636Z,69.56
2023-03-15T19:54:12.942Z,69.80
2023-03-15T19:56:45.987Z,68.95
2023-03-15T19:59:20.738Z,69.15
2023-03-15T20:01:53.227Z,69.80
2023-03-15T20:04:28.115Z,69.75
2023-03-15T20:07:00.402Z,70.13
2023-03-15T20:09:38.974Z,71.13
2023-03-15T20:12:13.923Z,70.95
2023-03-15T20:14:48.712Z,71.27
2023-03-15T20:17:21.665Z,71.46
2023-03-15T20:19:53.866Z,70.37
2023-03-15T20:22:26.163Z,71.02
2023-03-15T20:24:58.456Z,71.39
2023-03-15T20:27:35.567Z,71.24
2023-03-15T20:30:10.353Z,71.36
2023-03-15T20:32:43.475Z,71.10
2023-03-15T20:35:18.715Z,72.05
2023-03-15T20:37:53.254Z,70.98
2023-03-15T20:40:25.694Z,71.70
2023-03-15T20:43:01.875Z,72.00
2023-03-15T20:45:34.237Z,72.04
2023-03-15T20:48:07.837Z,72.95
2023-03-15T20:50:43.194Z,72.82
2023-03-15T20:53:15.328Z,72.82
2023-03-15T20:55:47.758Z,74.33
2023-03-15T20:58:20.291Z,74.08
2023-03-15T21:00:52.829Z,73.94
2023-03-15T21:03:25.206Z,75.09
2023-03-15T21:06:02.888Z,74.58
2023-03-15T21:08:36.107Z,74.46
2023-03-15T21:11:13.460Z,75.38
2023-03-15T21:13:46.095Z,75.36
2023-03-15T21:16:18.581Z,76.28
2023-03-15T21:18:55.114Z,77.29
2023-03-15T21:21:27.641Z,77.40
2023-03-15T21:24:02.613Z,76.71
2023-03-15T21:26:34.867Z,75.65
2023-03-15T21:29:07.247Z,76.74
2023-03-15T21:31:39.708Z,76.88
2023-03-15T21:34:11.853Z,77.14
2023-03-15T21:36:44.056Z,77.25
2023-03-15T21:39:16.210Z,76.59
2023-03-15T21:41:48.423Z,76.65
2023-03-15T21:44:21.213Z,76.55
2023-03-15T21:46:54.450Z,76.46
2023-03-15T21:49:26.869Z,77.10
2023-03-15T21:51:59.962Z,77.55
2023-03-15T21:54:32.221Z,77.05
2023-03-15T21:57:05.106Z,77.39
2023-03-15T21:59:37.780Z,76.89
2023-03-15T22:02:14.388Z,75.80
2023-03-15T22:04:46.697Z,75.79
2023-03-15T22:07:23.162Z,76.25
2023-03-15T22:09:55.483Z,76.42
2023-03-15T22:12:27.649Z,76.83
2023-03-15T22:16:10.176Z,76.98
2023-03-15T22:18:42.386Z,77.14
2023-03-15T22:21:14.617Z,76.80
2023-03-15T22:23:46.787Z,76.65
2023-03-15T22:26:19.774Z,77.36
2023-03-15T22:28:52.350Z,77.62
2023-03-15T22:31:24.518Z,77.45
2023-03-15T22:33:56.604Z,76.95
2023-03-15T22:36:28.833Z,76.75
2023-03-15T22:39:02.282Z,76.73
2023-03-15T22:41:34.517Z,76.37
2023-03-15T22:44:06.736Z,76.21
2023-03-15T22:46:39.134Z,76.09
2023-03-15T22:49:11.356Z,76.78
2023-03-15T22:51:46.790Z,76.06
2023-03-15T22:54:21.943Z,75.85
2023-03-15T22:56:54.211Z,74.91
2023-03-15T23:02:15.739Z,74.09
2023-03-15T23:10:21.826Z,72.88
2023-03-15T23:12:54.153Z,72.47
2023-03-15T23:15:27.048Z,71.80
2023-03-15T23:18:02.837Z,71.85
2023-03-15T23:20:42.767Z,71.43
2023-03-15T23:23:15.360Z,70.98
2023-03-15T23:25:54.130Z,70.72
2023-03-15T23:28:36.176Z,70.16
2023-03-15T23:31:11.330Z,69.89
2023-03-15T23:33:47.189Z,70.30
2023-03-15T23:36:19.458Z,69.85
2023-03-15T23:38:54.248Z,69.93
2023-03-15T23:41:33.686Z,69.64
2023-03-15T23:44:06.405Z,69.51
2023-03-15T23:46:39.033Z,69.06
2023-03-15T23:49:12.980Z,69.35
2023-03-15T23:51:45.563Z,69.48
2023-03-15T23:54:17.855Z,69.30
2023-03-15T23:56:51.354Z,69.12
2023-03-15T23:59:23.656Z,69.72
